• Join FlightAware (Why Join?)
  • Login
  • US Flag 
08:07AM EST


 

Airport Tracker/Info


-or-


 

Live Flight TrackerFlight Track Log ✈ N508QS ✈ 02-Jun-2013 ✈ KTEB - KPHL

Flight Track Log - Related Links

Times and Time Zones

All times are in EDT time to prevent confusion due to time zone crossing. See the N508QS flight status page for this flight to view local times or setup timezone preferences in your user account.

Time Position Orientation Groundspeed Altitude Reporting Facility
EDT Latitude Longitude Course Direction KTS MPH feet Rate Location/Type
05:59PM 40.8333 -74.0833 252° West 156 180 1,500  Level New York TRACON
06:00PM 40.8167 -74.1500 252° West 189 217 1,600 1,380 Climbing New York TRACON
06:01PM 40.8000 -74.2333 255° West 218 251 4,400 2,700 Climbing New York TRACON
06:02PM 40.7667 -74.3000 237° Southwest 242 278 7,100 1,380 Climbing New York TRACON
06:03PM 40.7333 -74.3667 237° Southwest 249 287 7,100  Level New York TRACON
06:04PM 40.7000 -74.4667 246° West 247 284 7,100  Level New York TRACON
06:05PM 40.6667 -74.5333 237° Southwest 246 283 7,100  Level New York TRACON
06:06PM 40.6333 -74.6167 242° Southwest 248 285 7,100 -360 Level New York TRACON
06:08PM 40.5833 -74.7500 244° Southwest 247 284 6,200 -720 Descending Philadelphia TRACON
06:09PM 40.5333 -74.8167 225° Southwest 248 285 5,200 -600 Descending Philadelphia TRACON
06:10PM 40.4833 -74.8833 225° Southwest 248 285 5,000 -120 Descending Philadelphia TRACON
06:11PM 40.4167 -74.9333 210° Southwest 255 293 5,000  Level Philadelphia TRACON
06:12PM 40.3500 -74.9667 201° Southwest 254 292 5,000 -240 Level Philadelphia TRACON
06:13PM 40.2833 -74.9833 191° South 254 292 4,600 -540 Descending Philadelphia TRACON
06:14PM 40.2167 -75.0000 191° South 247 284 4,000 -300 Descending Philadelphia TRACON
06:15PM 40.1500 -75.0167 191° South 246 283 4,000  Level Philadelphia TRACON
06:16PM 40.1000 -75.0500 207° Southwest 205 236 4,000  Level Philadelphia TRACON
06:17PM 40.0333 -75.0667 191° South 192 221 4,000 -780 Level Philadelphia TRACON
06:18PM 39.9833 -75.0833 194° South 203 234 2,500 -1,020 Descending Philadelphia TRACON
06:19PM 39.9333 -75.1000 194° South 192 221 2,000 -600 Descending Philadelphia TRACON
06:20PM 39.9000 -75.1333 217° Southwest 146 168 1,400 -660 Descending Philadelphia TRACON
06:21PM 39.8833 -75.1667 237° Southwest 112 129 700 -720 Descending Philadelphia TRACON
06:23PM 39.8667 -75.2333 142° Southeast  Level FlightAware Approximate
06:30PM 39.8722 -75.2409 142° Southeast  Level Estimated